Terminal Aerodrome Forecast
Issued by NWS

Home | Current Version | Previous Version | Text Only | Print | Product List | Glossary On
Versions: 1 2 3 4 5 6 7 8 9 10 11 12 13 14 15 16 17 18 19 20
000
FTUS42 KGSP 250145 AAA
TAFAND
TAF AMD
KAND 250145Z 2502/2524 36006KT P6SM VCSH SCT008 OVC025
     FM250400 02005KT P6SM VCSH OVC008
     FM250700 36005KT P6SM OVC003
     FM251400 30006KT P6SM BKN008
     FM251600 31004KT P6SM BKN025
     FM252000 24005KT P6SM SCT040=

USA.gov is the U.S. government's official web portal to all federal, state and local government web resources and services.